createdAt,value
2023-05-11T00:01:44.321Z,13.30
2023-05-11T00:04:30.590Z,13.63
2023-05-11T00:07:17.483Z,12.83
2023-05-11T00:10:06.380Z,12.77
2023-05-11T00:12:34.893Z,12.60
2023-05-11T00:15:14.056Z,12.50
2023-05-11T00:17:42.657Z,12.50
2023-05-11T00:20:11.632Z,11.93
2023-05-11T00:22:39.854Z,12.17
2023-05-11T00:25:10.785Z,12.53
2023-05-11T00:27:39.434Z,11.87
2023-05-11T00:30:10.183Z,12.40
2023-05-11T00:32:38.598Z,12.40
2023-05-11T00:35:07.886Z,12.00
2023-05-11T00:37:36.102Z,12.20
2023-05-11T00:40:04.408Z,11.80
2023-05-11T00:42:34.576Z,12.40
2023-05-11T00:45:03.095Z,11.67
2023-05-11T00:47:32.010Z,11.30
2023-05-11T00:50:00.325Z,11.57
2023-05-11T00:52:28.503Z,12.20
2023-05-11T00:54:56.680Z,11.90
2023-05-11T00:57:25.017Z,12.50
2023-05-11T00:59:54.672Z,11.77
2023-05-11T01:02:23.062Z,12.63
2023-05-11T01:04:52.845Z,12.30
2023-05-11T01:07:27.071Z,11.90
2023-05-11T01:10:10.258Z,12.10
2023-05-11T01:12:50.815Z,12.30
2023-05-11T01:15:26.235Z,12.73
2023-05-11T01:18:01.497Z,12.40
2023-05-11T01:20:40.104Z,12.00
2023-05-11T01:24:05.534Z,12.30
2023-05-11T01:27:11.571Z,12.70
2023-05-11T01:30:15.576Z,12.27
2023-05-11T01:32:53.551Z,12.60
2023-05-11T01:35:26.004Z,12.73
2023-05-11T01:37:58.406Z,12.50
2023-05-11T01:40:41.417Z,12.30
2023-05-11T01:43:13.887Z,12.60
2023-05-11T01:45:48.555Z,12.13
2023-05-11T01:48:25.593Z,12.80
2023-05-11T01:50:55.790Z,12.60
2023-05-11T01:53:25.359Z,12.90
2023-05-11T01:55:56.541Z,12.87
2023-05-11T01:58:25.950Z,13.03
2023-05-11T02:00:55.677Z,13.70
2023-05-11T02:03:27.481Z,12.37
2023-05-11T02:05:57.107Z,13.00
2023-05-11T02:08:26.970Z,12.73
2023-05-11T02:10:57.853Z,12.33
2023-05-11T02:13:27.806Z,12.57
2023-05-11T02:15:59.034Z,12.33
2023-05-11T02:18:30.148Z,12.67
2023-05-11T02:21:00.255Z,12.90
2023-05-11T02:23:29.237Z,12.70
2023-05-11T02:25:58.699Z,12.77
2023-05-11T02:28:27.002Z,12.50
2023-05-11T02:30:58.069Z,13.00
2023-05-11T02:33:31.928Z,12.53
2023-05-11T02:36:01.202Z,12.30
2023-05-11T02:38:34.305Z,12.50
2023-05-11T02:41:07.215Z,12.00
2023-05-11T02:43:41.181Z,12.40
2023-05-11T02:46:16.595Z,12.60
2023-05-11T02:48:50.580Z,12.20
2023-05-11T02:51:21.587Z,12.77
2023-05-11T02:53:51.223Z,13.03
2023-05-11T02:56:19.988Z,12.60
2023-05-11T02:58:48.451Z,12.13
2023-05-11T03:01:17.055Z,12.33
2023-05-11T03:03:46.980Z,12.80
2023-05-11T03:06:15.352Z,12.50
2023-05-11T03:08:43.799Z,12.50
2023-05-11T03:11:12.776Z,12.40
2023-05-11T03:13:41.183Z,12.87
2023-05-11T03:16:10.676Z,13.10
2023-05-11T03:18:39.307Z,13.47
2023-05-11T03:21:09.184Z,12.93
2023-05-11T03:23:39.034Z,13.13
2023-05-11T03:26:08.418Z,13.23
2023-05-11T03:28:38.030Z,13.43
2023-05-11T03:31:06.402Z,13.40
2023-05-11T03:33:34.637Z,13.20
2023-05-11T03:36:05.555Z,13.37
2023-05-11T03:38:36.947Z,13.80
2023-05-11T03:41:05.083Z,13.43
2023-05-11T03:43:35.883Z,13.50
2023-05-11T03:46:04.986Z,13.33
2023-05-11T03:48:33.386Z,13.83
2023-05-11T03:51:01.742Z,13.30
2023-05-11T03:53:31.377Z,13.70
2023-05-11T03:56:01.765Z,13.90
2023-05-11T03:58:31.243Z,14.40
2023-05-11T04:00:59.486Z,14.90
2023-05-11T04:03:28.301Z,14.90
2023-05-11T04:05:56.683Z,14.60
2023-05-11T04:08:25.306Z,14.00
2023-05-11T04:10:53.457Z,14.43
2023-05-11T04:13:23.004Z,13.13
2023-05-11T04:15:52.889Z,13.90
2023-05-11T04:18:22.518Z,14.00
2023-05-11T04:20:50.739Z,13.03
2023-05-11T04:23:19.094Z,13.13
2023-05-11T04:25:47.345Z,13.80
2023-05-11T04:28:15.553Z,13.87
2023-05-11T04:30:45.100Z,13.47
2023-05-11T04:33:14.595Z,14.00
2023-05-11T04:35:42.728Z,14.10
2023-05-11T04:38:10.973Z,14.13
2023-05-11T04:40:39.154Z,13.97
2023-05-11T04:43:07.391Z,13.97
2023-05-11T04:45:35.560Z,13.70
2023-05-11T04:48:06.594Z,14.03
2023-05-11T04:50:35.165Z,14.17
2023-05-11T04:53:03.355Z,13.50
2023-05-11T04:55:31.551Z,13.30
2023-05-11T04:57:59.728Z,13.43
2023-05-11T05:00:28.070Z,13.60
2023-05-11T05:02:56.394Z,13.77
2023-05-11T05:05:26.069Z,13.73
2023-05-11T05:07:54.288Z,13.23
2023-05-11T05:10:22.527Z,13.77
2023-05-11T05:12:51.007Z,14.70
2023-05-11T05:15:19.158Z,15.07
2023-05-11T05:17:47.339Z,14.77
2023-05-11T05:20:15.645Z,15.77
2023-05-11T05:22:45.293Z,15.20
2023-05-11T05:25:13.496Z,14.90
2023-05-11T05:27:41.656Z,15.50
2023-05-11T05:30:10.463Z,15.30
2023-05-11T05:32:38.689Z,15.00
2023-05-11T05:35:07.723Z,15.30
2023-05-11T05:37:37.574Z,15.03
2023-05-11T05:40:08.685Z,15.20
2023-05-11T05:42:36.785Z,15.30
2023-05-11T05:45:05.802Z,15.70
2023-05-11T05:47:33.981Z,16.70
2023-05-11T05:50:02.160Z,15.63
2023-05-11T05:52:30.681Z,15.20
2023-05-11T05:54:58.891Z,15.63
2023-05-11T05:57:30.605Z,15.70
2023-05-11T05:59:58.967Z,16.10
2023-05-11T06:02:27.260Z,15.50
2023-05-11T06:04:55.570Z,15.57
2023-05-11T06:07:23.788Z,15.10
2023-05-11T06:09:52.106Z,16.30
2023-05-11T06:12:20.431Z,16.20
2023-05-11T06:14:50.117Z,15.80
2023-05-11T06:17:18.301Z,16.13
2023-05-11T06:19:47.351Z,16.10
2023-05-11T06:22:15.489Z,15.77
2023-05-11T06:24:43.817Z,16.90
2023-05-11T06:27:12.060Z,15.73
2023-05-11T06:29:42.402Z,16.07
2023-05-11T06:32:12.134Z,15.07
2023-05-11T06:34:40.530Z,15.57
2023-05-11T06:37:08.702Z,15.63
2023-05-11T06:39:37.672Z,15.30
2023-05-11T06:42:06.911Z,17.60
2023-05-11T06:44:35.446Z,15.57
2023-05-11T06:47:03.684Z,15.50
2023-05-11T06:49:33.336Z,15.20
2023-05-11T06:52:01.769Z,16.07
2023-05-11T06:54:30.126Z,14.83
2023-05-11T06:56:58.309Z,15.40
2023-05-11T06:59:27.120Z,15.20
2023-05-11T07:01:56.794Z,15.13
2023-05-11T07:04:25.496Z,15.87
2023-05-11T07:06:55.398Z,16.10
2023-05-11T07:09:23.603Z,15.47
2023-05-11T07:11:52.859Z,15.63
2023-05-11T07:14:21.452Z,15.07
2023-05-11T07:16:52.870Z,15.30
2023-05-11T07:19:21.259Z,23.20
2023-05-11T07:21:49.511Z,16.63
2023-05-11T07:24:19.202Z,14.90
2023-05-11T07:26:47.533Z,15.30
2023-05-11T07:29:15.797Z,14.70
2023-05-11T07:31:44.260Z,15.30
2023-05-11T07:34:14.093Z,15.40
2023-05-11T07:36:42.349Z,15.60
2023-05-11T07:40:01.029Z,15.50
2023-05-11T07:46:12.775Z,15.33
2023-05-11T07:48:44.246Z,15.27
2023-05-11T07:51:12.887Z,14.87
2023-05-11T07:53:41.374Z,15.07
2023-05-11T07:56:10.639Z,17.03
2023-05-11T07:58:38.896Z,16.10
2023-05-11T08:01:07.865Z,15.50
2023-05-11T08:03:37.512Z,15.50
2023-05-11T08:06:06.379Z,15.90
2023-05-11T08:08:34.678Z,15.73
2023-05-11T08:11:03.827Z,15.93
2023-05-11T08:13:31.957Z,16.30
2023-05-11T08:16:00.393Z,16.13
2023-05-11T08:18:28.651Z,16.17
2023-05-11T08:20:58.434Z,16.43
2023-05-11T08:23:26.638Z,16.57
2023-05-11T08:25:56.780Z,17.00
2023-05-11T08:28:24.992Z,16.30
2023-05-11T08:30:56.678Z,16.30
2023-05-11T08:35:57.343Z,17.43
2023-05-11T08:38:25.561Z,17.60
2023-05-11T08:40:54.287Z,17.70
2023-05-11T08:43:25.311Z,17.23
2023-05-11T08:45:58.596Z,16.70
2023-05-11T08:48:27.601Z,17.03
2023-05-11T08:50:57.284Z,16.90
2023-05-11T08:53:25.528Z,16.73
2023-05-11T08:55:55.832Z,17.47
2023-05-11T08:58:24.638Z,16.80
2023-05-11T09:00:53.062Z,17.63
2023-05-11T09:03:22.505Z,16.80
2023-05-11T09:05:51.411Z,16.90
2023-05-11T09:08:23.326Z,16.53
2023-05-11T09:10:52.054Z,17.37
2023-05-11T09:13:20.447Z,16.83
2023-05-11T09:15:48.670Z,16.60
2023-05-11T09:18:16.933Z,16.63
2023-05-11T09:20:45.715Z,16.57
2023-05-11T09:23:17.380Z,16.80
2023-05-11T09:25:46.975Z,17.00
2023-05-11T09:28:24.846Z,16.93
2023-05-11T09:30:53.662Z,16.30
2023-05-11T09:33:26.665Z,16.80
2023-05-11T09:35:55.309Z,16.80
2023-05-11T09:38:27.656Z,16.00
2023-05-11T09:40:57.829Z,16.40
2023-05-11T09:43:27.870Z,16.00
2023-05-11T09:45:57.368Z,16.30
2023-05-11T09:48:28.249Z,16.13
2023-05-11T09:51:05.219Z,16.23
2023-05-11T09:53:43.326Z,16.03
2023-05-11T09:56:13.934Z,16.37
2023-05-11T09:58:50.589Z,16.00
2023-05-11T10:01:20.318Z,15.70
2023-05-11T10:03:50.350Z,16.20
2023-05-11T10:06:20.439Z,17.73
2023-05-11T10:08:50.161Z,16.50
2023-05-11T10:11:26.387Z,17.03
2023-05-11T10:13:55.227Z,16.20
2023-05-11T10:16:24.162Z,16.90
2023-05-11T10:18:53.162Z,16.63
2023-05-11T10:21:21.757Z,17.10
2023-05-11T10:23:50.534Z,16.63
2023-05-11T10:26:20.477Z,16.20
2023-05-11T10:28:48.828Z,15.73
2023-05-11T10:31:24.162Z,17.13
2023-05-11T10:33:53.074Z,16.20
2023-05-11T10:36:23.361Z,16.30
2023-05-11T10:38:51.813Z,16.23
2023-05-11T10:41:46.213Z,16.80
2023-05-11T10:44:33.557Z,17.00
2023-05-11T10:47:19.497Z,17.80
2023-05-11T10:50:08.402Z,17.10
2023-05-11T10:52:53.405Z,16.87
2023-05-11T10:55:32.286Z,17.40
2023-05-11T10:58:10.551Z,16.63
2023-05-11T11:01:17.474Z,16.80
2023-05-11T11:04:02.851Z,16.47
2023-05-11T11:06:32.129Z,16.00
2023-05-11T11:09:01.673Z,16.40
2023-05-11T11:11:31.703Z,16.60
2023-05-11T11:14:03.848Z,16.30
2023-05-11T11:16:32.528Z,16.70
2023-05-11T11:19:38.634Z,16.47
2023-05-11T11:22:07.319Z,16.40
2023-05-11T11:24:46.791Z,16.90
2023-05-11T11:27:17.285Z,16.40
2023-05-11T11:30:19.921Z,16.40
2023-05-11T11:32:49.232Z,16.30
2023-05-11T11:35:49.084Z,16.80
2023-05-11T11:38:19.721Z,16.77
2023-05-11T11:40:51.810Z,16.33
2023-05-11T11:43:22.635Z,16.03
2023-05-11T11:45:56.284Z,16.53
2023-05-11T11:48:31.144Z,16.47
2023-05-11T11:51:04.933Z,15.80
2023-05-11T11:54:00.989Z,16.00
2023-05-11T11:56:43.635Z,15.90
2023-05-11T11:59:16.378Z,16.10
2023-05-11T12:01:47.081Z,16.43
2023-05-11T12:04:55.674Z,16.40
2023-05-11T12:07:26.485Z,16.30
2023-05-11T12:09:54.819Z,15.83
2023-05-11T12:12:23.147Z,16.07
2023-05-11T12:14:51.408Z,15.83
2023-05-11T12:17:29.857Z,16.17
2023-05-11T12:20:14.110Z,14.73
2023-05-11T12:22:42.578Z,15.10
2023-05-11T12:25:12.725Z,14.90
2023-05-11T12:27:49.533Z,15.10
2023-05-11T12:30:22.354Z,14.93
2023-05-11T12:32:56.941Z,15.10
2023-05-11T12:35:27.372Z,15.97
2023-05-11T12:37:57.195Z,15.60
2023-05-11T12:40:25.826Z,15.53
2023-05-11T12:42:55.072Z,15.13
2023-05-11T12:45:24.819Z,15.10
2023-05-11T12:47:55.955Z,15.30
2023-05-11T12:50:25.029Z,15.23
2023-05-11T12:52:53.402Z,15.43
2023-05-11T12:55:31.124Z,15.80
2023-05-11T12:58:09.632Z,15.60
2023-05-11T13:00:37.945Z,15.63
2023-05-11T13:03:07.934Z,15.60
2023-05-11T13:05:36.357Z,14.97
2023-05-11T13:08:06.760Z,14.70
2023-05-11T13:10:35.139Z,15.63
2023-05-11T13:13:03.960Z,15.33
2023-05-11T13:15:32.331Z,14.40
2023-05-11T13:18:02.345Z,14.93
2023-05-11T13:20:34.202Z,14.77
2023-05-11T13:23:07.665Z,14.97
2023-05-11T13:25:36.737Z,15.87
2023-05-11T13:28:05.560Z,15.53
2023-05-11T13:30:35.275Z,14.90
2023-05-11T13:33:04.435Z,14.67
2023-05-11T13:35:34.081Z,15.67
2023-05-11T13:38:02.360Z,15.40
2023-05-11T13:40:30.989Z,16.00
2023-05-11T13:43:00.511Z,15.07
2023-05-11T13:45:29.504Z,15.33
2023-05-11T13:47:58.039Z,15.30
2023-05-11T13:50:27.553Z,16.00
2023-05-11T13:52:57.146Z,15.77
2023-05-11T13:55:25.333Z,15.20
2023-05-11T13:57:53.621Z,15.10
2023-05-11T14:00:22.205Z,15.80
2023-05-11T14:02:51.821Z,14.70
2023-05-11T14:05:20.637Z,15.90
2023-05-11T14:07:49.415Z,15.23
2023-05-11T14:10:19.455Z,14.70
2023-05-11T14:12:47.642Z,14.20
2023-05-11T14:15:15.780Z,14.73
2023-05-11T14:17:44.209Z,13.83
2023-05-11T14:20:13.747Z,14.10
2023-05-11T14:22:42.328Z,14.10
2023-05-11T14:25:11.071Z,15.13
2023-05-11T14:27:40.724Z,14.87
2023-05-11T14:30:10.143Z,14.97
2023-05-11T14:32:38.379Z,14.30
2023-05-11T14:35:07.226Z,14.03
2023-05-11T14:37:36.124Z,14.43
2023-05-11T14:40:05.037Z,14.63
2023-05-11T14:42:33.360Z,14.50
2023-05-11T14:45:04.312Z,14.40
2023-05-11T14:47:33.743Z,14.33
2023-05-11T14:50:02.311Z,14.00
2023-05-11T14:52:30.485Z,14.10
2023-05-11T14:54:58.724Z,15.17
2023-05-11T14:57:27.277Z,15.10
2023-05-11T14:59:59.952Z,14.37
2023-05-11T15:02:30.633Z,15.30
2023-05-11T15:04:58.852Z,15.90
2023-05-11T15:07:27.174Z,15.97
2023-05-11T15:09:56.010Z,14.13
2023-05-11T15:12:25.046Z,14.40
2023-05-11T15:14:53.343Z,14.20
2023-05-11T15:17:21.673Z,14.20
2023-05-11T15:19:51.843Z,15.80
2023-05-11T15:22:20.106Z,13.97
2023-05-11T15:24:48.563Z,14.03
2023-05-11T15:27:17.021Z,14.10
2023-05-11T15:29:45.229Z,14.23
2023-05-11T15:32:17.293Z,14.27
2023-05-11T15:34:58.479Z,14.17
2023-05-11T15:37:29.428Z,14.10
2023-05-11T15:39:57.724Z,13.80
2023-05-11T15:42:26.525Z,13.63
2023-05-11T15:44:54.755Z,14.00
2023-05-11T15:47:22.950Z,13.80
2023-05-11T15:49:51.193Z,13.80
2023-05-11T15:52:19.749Z,14.20
2023-05-11T15:54:49.442Z,14.30
2023-05-11T15:57:17.806Z,14.50
2023-05-11T15:59:46.003Z,13.90
2023-05-11T16:02:14.305Z,13.87
2023-05-11T16:04:42.792Z,14.10
2023-05-11T16:07:11.129Z,14.00
2023-05-11T16:09:39.267Z,14.23
2023-05-11T16:12:09.401Z,14.83
2023-05-11T16:14:37.719Z,14.63
2023-05-11T16:17:06.114Z,14.60
2023-05-11T16:19:34.352Z,14.03
2023-05-11T16:22:02.631Z,14.37
2023-05-11T16:24:34.345Z,14.10
2023-05-11T16:27:02.958Z,14.00
2023-05-11T16:29:32.451Z,13.90
2023-05-11T16:32:00.940Z,13.57
2023-05-11T16:34:29.054Z,13.90
2023-05-11T16:36:58.942Z,15.00
2023-05-11T16:39:27.815Z,14.10
2023-05-11T16:41:56.028Z,13.90
2023-05-11T16:44:24.626Z,14.00
2023-05-11T16:46:54.293Z,14.37
2023-05-11T16:49:22.545Z,14.00
2023-05-11T16:51:51.730Z,14.67
2023-05-11T16:54:19.931Z,13.80
2023-05-11T16:56:48.045Z,13.50
2023-05-11T16:59:16.783Z,13.90
2023-05-11T17:01:46.117Z,13.53
2023-05-11T17:04:15.791Z,13.90
2023-05-11T17:06:44.205Z,13.37
2023-05-11T17:09:12.312Z,13.90
2023-05-11T17:11:40.433Z,14.33
2023-05-11T17:14:08.514Z,13.87
2023-05-11T17:16:36.772Z,13.80
2023-05-11T17:19:05.061Z,14.07
2023-05-11T17:21:34.659Z,13.10
2023-05-11T17:24:02.744Z,13.27
2023-05-11T17:26:43.279Z,13.10
2023-05-11T17:29:15.802Z,13.77
2023-05-11T17:31:46.437Z,13.10
2023-05-11T17:34:14.917Z,13.03
2023-05-11T17:36:44.677Z,13.00
2023-05-11T17:39:13.135Z,12.63
2023-05-11T17:41:41.338Z,12.97
2023-05-11T17:44:09.399Z,12.83
2023-05-11T17:46:37.636Z,13.90
2023-05-11T17:49:06.610Z,13.37
2023-05-11T17:51:34.798Z,13.53
2023-05-11T17:54:04.443Z,13.07
2023-05-11T17:56:32.891Z,13.40
2023-05-11T17:59:01.134Z,14.17
2023-05-11T18:01:29.344Z,13.87
2023-05-11T18:03:59.252Z,13.20
2023-05-11T18:06:28.349Z,13.43
2023-05-11T18:08:56.699Z,13.33
2023-05-11T18:11:27.188Z,13.30
2023-05-11T18:13:55.406Z,13.33
2023-05-11T18:16:23.660Z,13.53
2023-05-11T18:18:51.932Z,13.23
2023-05-11T18:21:20.266Z,12.80
2023-05-11T18:23:48.593Z,12.87
2023-05-11T18:26:18.087Z,13.93
2023-05-11T18:28:47.928Z,13.80
2023-05-11T18:31:18.898Z,13.87
2023-05-11T18:33:47.511Z,14.60
2023-05-11T18:36:16.016Z,13.00
2023-05-11T18:38:44.740Z,13.40
2023-05-11T18:41:12.950Z,13.37
2023-05-11T18:43:41.310Z,13.30
2023-05-11T18:46:10.983Z,13.93
2023-05-11T18:48:40.049Z,14.20
2023-05-11T18:51:08.266Z,14.60
2023-05-11T18:53:36.328Z,13.50
2023-05-11T18:56:04.652Z,13.73
2023-05-11T18:58:32.891Z,14.00
2023-05-11T19:01:01.095Z,13.60
2023-05-11T19:03:32.324Z,13.43
2023-05-11T19:06:01.708Z,13.83
2023-05-11T19:08:29.934Z,14.43
2023-05-11T19:10:58.056Z,14.17
2023-05-11T19:13:26.238Z,13.70
2023-05-11T19:15:54.397Z,14.00
2023-05-11T19:18:22.533Z,13.77
2023-05-11T19:20:52.131Z,13.70
2023-05-11T19:23:20.333Z,13.97
2023-05-11T19:25:48.551Z,13.50
2023-05-11T19:28:17.350Z,14.07
2023-05-11T19:30:45.605Z,13.60
2023-05-11T19:33:13.802Z,13.87
2023-05-11T19:35:42.191Z,13.67
2023-05-11T19:38:11.835Z,13.60
2023-05-11T19:43:13.282Z,13.40
2023-05-11T19:45:43.574Z,13.67
2023-05-11T19:48:12.094Z,14.57
2023-05-11T19:51:01.633Z,16.10
2023-05-11T19:53:31.348Z,14.43
2023-05-11T19:55:59.980Z,14.50
2023-05-11T19:58:28.163Z,14.90
2023-05-11T20:00:56.534Z,14.90
2023-05-11T20:03:25.806Z,14.47
2023-05-11T20:06:02.477Z,14.83
2023-05-11T20:08:32.052Z,14.70
2023-05-11T20:11:00.406Z,14.60
2023-05-11T20:13:29.067Z,14.77
2023-05-11T20:15:57.422Z,15.07
2023-05-11T20:18:25.755Z,15.60
2023-05-11T20:20:53.988Z,15.43
2023-05-11T20:23:22.141Z,15.27
2023-05-11T20:25:51.760Z,15.00
2023-05-11T20:28:21.531Z,15.40
2023-05-11T20:30:50.141Z,14.40
2023-05-11T20:35:50.757Z,14.90
2023-05-11T20:38:20.039Z,14.83
2023-05-11T20:40:48.375Z,15.70
2023-05-11T20:43:18.067Z,14.80
2023-05-11T20:45:46.245Z,15.00
2023-05-11T20:48:14.480Z,15.27
2023-05-11T20:50:42.644Z,16.20
2023-05-11T20:53:10.840Z,15.70
2023-05-11T20:56:12.716Z,15.57
2023-05-11T21:05:49.186Z,15.40
2023-05-11T21:15:50.701Z,15.13
2023-05-11T21:18:37.834Z,15.50
2023-05-11T21:21:06.284Z,15.20
2023-05-11T21:27:28.678Z,15.40
2023-05-11T21:31:38.323Z,15.20
2023-05-11T21:34:07.843Z,14.90
2023-05-11T21:36:36.214Z,14.90
2023-05-11T21:39:04.894Z,15.10
2023-05-11T21:41:36.322Z,15.27
2023-05-11T21:44:04.615Z,15.10
2023-05-11T21:46:32.950Z,14.77
2023-05-11T21:49:01.288Z,15.17
2023-05-11T21:51:30.886Z,14.83
2023-05-11T21:53:59.351Z,15.03
2023-05-11T21:56:27.524Z,15.80
2023-05-11T21:58:55.975Z,14.93
2023-05-11T22:01:24.335Z,15.40
2023-05-11T22:03:52.736Z,15.57
2023-05-11T22:06:20.978Z,15.07
2023-05-11T22:08:50.698Z,15.00
2023-05-11T22:11:19.539Z,16.10
2023-05-11T22:13:47.734Z,15.60
2023-05-11T22:16:15.919Z,16.10
2023-05-11T22:18:44.297Z,15.33
2023-05-11T22:21:12.534Z,16.10
2023-05-11T22:23:40.763Z,15.60
2023-05-11T22:26:10.280Z,15.77
2023-05-11T22:28:38.523Z,15.40
2023-05-11T22:31:08.136Z,16.30
2023-05-11T22:33:36.416Z,15.63
2023-05-11T22:36:05.095Z,16.57
2023-05-11T22:38:34.421Z,15.43
2023-05-11T22:41:04.005Z,15.83
2023-05-11T22:43:34.205Z,14.80
2023-05-11T22:46:02.917Z,15.50
2023-05-11T22:48:31.291Z,15.53
2023-05-11T22:51:00.420Z,15.70
2023-05-11T22:53:29.856Z,16.37
2023-05-11T22:55:58.441Z,15.77
2023-05-11T22:58:27.362Z,15.17
2023-05-11T23:00:57.411Z,15.13
2023-05-11T23:03:27.358Z,15.37
2023-05-11T23:05:56.694Z,15.03
2023-05-11T23:08:26.651Z,15.53
2023-05-11T23:10:55.437Z,15.00
2023-05-11T23:13:24.129Z,15.23
2023-05-11T23:15:52.627Z,15.57
2023-05-11T23:18:23.486Z,15.27
2023-05-11T23:20:56.937Z,15.30
2023-05-11T23:23:25.385Z,15.03
2023-05-11T23:25:53.829Z,14.60
2023-05-11T23:28:22.891Z,14.77
2023-05-11T23:30:51.802Z,14.53
2023-05-11T23:33:21.885Z,15.70
2023-05-11T23:35:50.053Z,15.00
2023-05-11T23:38:18.262Z,14.57
2023-05-11T23:40:46.438Z,14.53
2023-05-11T23:43:14.615Z,14.90
2023-05-11T23:45:42.795Z,14.87
2023-05-11T23:48:11.287Z,14.90
2023-05-11T23:50:40.800Z,14.90
2023-05-11T23:53:08.915Z,14.80
2023-05-11T23:55:37.065Z,15.70
2023-05-11T23:58:05.338Z,15.10
